createdAt,value
2018-04-12T00:00:35.172Z,4.00
2018-04-12T00:01:35.256Z,4.00
2018-04-12T00:02:34.764Z,0.00
2018-04-12T00:03:35.169Z,0.00
2018-04-12T00:04:34.634Z,0.00
2018-04-12T00:05:34.620Z,0.00
2018-04-12T00:06:34.564Z,0.00
2018-04-12T00:07:34.730Z,0.00
2018-04-12T00:08:34.567Z,0.00
2018-04-12T00:09:34.457Z,0.00
2018-04-12T00:10:34.913Z,12.00
2018-04-12T00:11:34.410Z,8.00
2018-04-12T00:12:35.359Z,8.00
2018-04-12T00:13:35.005Z,8.00
2018-04-12T00:14:34.407Z,8.00
2018-04-12T00:15:35.002Z,8.00
2018-04-12T00:16:34.362Z,8.00
2018-04-12T00:17:34.397Z,8.00
2018-04-12T00:18:34.360Z,8.00
2018-04-12T00:19:34.260Z,8.00
2018-04-12T00:20:34.279Z,8.00
2018-04-12T00:21:34.175Z,8.00
2018-04-12T00:22:34.127Z,8.00
2018-04-12T00:23:34.738Z,8.00
2018-04-12T00:24:34.428Z,8.00
2018-04-12T00:25:34.622Z,8.00
2018-04-12T00:26:34.633Z,8.00
2018-04-12T00:27:34.525Z,8.00
2018-04-12T00:28:34.563Z,8.00
2018-04-12T00:29:34.520Z,8.00
2018-04-12T00:30:34.288Z,8.00
2018-04-12T00:31:33.926Z,8.00
2018-04-12T00:32:34.498Z,12.00
2018-04-12T00:33:33.965Z,8.00
2018-04-12T00:34:33.847Z,8.00
2018-04-12T00:35:33.840Z,8.00
2018-04-12T00:36:34.336Z,8.00
2018-04-12T00:37:34.319Z,8.00
2018-04-12T00:38:33.823Z,8.00
2018-04-12T00:39:33.706Z,8.00
2018-04-12T00:40:33.666Z,8.00
2018-04-12T00:41:33.651Z,8.00
2018-04-12T00:42:34.146Z,8.00
2018-04-12T00:43:34.251Z,8.00
2018-04-12T00:44:33.562Z,8.00
2018-04-12T00:45:33.898Z,8.00
2018-04-12T00:46:33.502Z,8.00
2018-04-12T00:47:33.491Z,8.00
2018-04-12T00:48:33.420Z,8.00
2018-04-12T00:49:33.978Z,8.00
2018-04-12T00:50:34.019Z,8.00
2018-04-12T00:51:33.356Z,8.00
2018-04-12T00:52:33.346Z,8.00
2018-04-12T00:53:33.364Z,8.00
2018-04-12T00:54:33.270Z,8.00
2018-04-12T00:55:33.813Z,8.00
2018-04-12T00:56:33.229Z,8.00
2018-04-12T00:57:33.663Z,8.00
2018-04-12T00:58:33.192Z,8.00
2018-04-12T00:59:33.162Z,8.00
2018-04-12T01:00:33.252Z,8.00
2018-04-12T01:01:33.099Z,8.00
2018-04-12T01:02:33.577Z,8.00
2018-04-12T01:03:33.041Z,8.00
2018-04-12T01:04:33.016Z,8.00
2018-04-12T01:05:33.611Z,8.00
2018-04-12T01:06:33.515Z,8.00
2018-04-12T01:07:33.439Z,8.00
2018-04-12T01:08:32.933Z,8.00
2018-04-12T01:09:33.401Z,8.00
2018-04-12T01:10:32.950Z,8.00
2018-04-12T01:11:32.843Z,8.00
2018-04-12T01:12:33.377Z,8.00
2018-04-12T01:13:33.291Z,8.00
2018-04-12T01:14:33.263Z,8.00
2018-04-12T01:15:32.811Z,8.00
2018-04-12T01:16:33.247Z,8.00
2018-04-12T01:17:32.707Z,8.00
2018-04-12T01:18:32.651Z,8.00
2018-04-12T01:19:32.622Z,8.00
2018-04-12T01:20:32.676Z,8.00
2018-04-12T01:21:32.571Z,8.00
2018-04-12T01:22:33.095Z,8.00
2018-04-12T01:23:33.058Z,8.00
2018-04-12T01:24:33.015Z,8.00
2018-04-12T01:25:32.455Z,8.00
2018-04-12T01:26:33.169Z,8.00
2018-04-12T01:27:32.411Z,8.00
2018-04-12T01:28:32.952Z,8.00
2018-04-12T01:29:32.365Z,8.00
2018-04-12T01:30:32.344Z,8.00
2018-04-12T01:31:32.863Z,8.00
2018-04-12T01:32:32.921Z,8.00
2018-04-12T01:33:32.271Z,8.00
2018-04-12T01:34:32.210Z,8.00
2018-04-12T01:35:32.752Z,8.00
2018-04-12T01:36:32.182Z,8.00
2018-04-12T01:37:32.264Z,8.00
2018-04-12T01:38:32.527Z,8.00
2018-04-12T01:39:32.114Z,8.00
2018-04-12T01:40:32.040Z,8.00
2018-04-12T01:41:32.587Z,8.00
2018-04-12T01:42:32.119Z,8.00
2018-04-12T01:43:32.517Z,8.00
2018-04-12T01:44:31.956Z,8.00
2018-04-12T01:45:32.438Z,8.00
2018-04-12T01:46:32.434Z,8.00
2018-04-12T01:47:32.598Z,8.00
2018-04-12T01:48:31.821Z,8.00
2018-04-12T01:49:31.832Z,8.00
2018-04-12T01:50:32.354Z,8.00
2018-04-12T01:51:32.305Z,8.00
2018-04-12T01:52:32.371Z,8.00
2018-04-12T01:53:31.709Z,8.00
2018-04-12T01:54:31.694Z,8.00
2018-04-12T01:55:32.208Z,8.00
2018-04-12T01:56:31.629Z,8.00
2018-04-12T01:57:32.126Z,8.00
2018-04-12T01:58:32.230Z,8.00
2018-04-12T01:59:31.616Z,8.00
2018-04-12T02:00:32.031Z,8.00
2018-04-12T02:01:32.038Z,8.00
2018-04-12T02:02:32.068Z,8.00
2018-04-12T02:03:32.423Z,8.00
2018-04-12T02:04:31.418Z,8.00
2018-04-12T02:05:32.042Z,8.00
2018-04-12T02:06:31.938Z,8.00
2018-04-12T02:07:31.891Z,8.00
2018-04-12T02:08:31.766Z,8.00
2018-04-12T02:09:31.289Z,8.00
2018-04-12T02:10:31.766Z,8.00
2018-04-12T02:11:31.264Z,8.00
2018-04-12T02:12:31.273Z,8.00
2018-04-12T02:13:31.377Z,8.00
2018-04-12T02:14:31.741Z,8.00
2018-04-12T02:15:31.134Z,8.00
2018-04-12T02:16:31.181Z,12.00
2018-04-12T02:17:31.261Z,12.00
2018-04-12T02:18:32.095Z,8.00
2018-04-12T02:19:31.606Z,8.00
2018-04-12T02:20:31.086Z,8.00
2018-04-12T02:21:31.512Z,8.00
2018-04-12T02:22:30.938Z,8.00
2018-04-12T02:23:31.042Z,8.00
2018-04-12T02:24:31.141Z,8.00
2018-04-12T02:25:30.918Z,8.00
2018-04-12T02:26:31.855Z,8.00
2018-04-12T02:27:31.393Z,8.00
2018-04-12T02:28:31.432Z,8.00
2018-04-12T02:29:31.324Z,8.00
2018-04-12T02:30:30.766Z,8.00
2018-04-12T02:31:30.744Z,8.00
2018-04-12T02:32:31.235Z,8.00
2018-04-12T02:33:30.772Z,12.00
2018-04-12T02:34:30.664Z,8.00
2018-04-12T02:35:30.628Z,8.00
2018-04-12T02:36:31.165Z,8.00
2018-04-12T02:37:30.560Z,8.00
2018-04-12T02:38:31.025Z,8.00
2018-04-12T02:39:30.465Z,8.00
2018-04-12T02:40:30.464Z,8.00
2018-04-12T02:41:30.453Z,8.00
2018-04-12T02:42:30.987Z,8.00
2018-04-12T02:43:30.371Z,8.00
2018-04-12T02:44:30.399Z,8.00
2018-04-12T02:45:30.349Z,8.00
2018-04-12T02:46:30.292Z,8.00
2018-04-12T02:47:30.728Z,8.00
2018-04-12T02:48:30.288Z,8.00
2018-04-12T02:49:30.871Z,8.00
2018-04-12T02:50:30.770Z,8.00
2018-04-12T02:51:30.211Z,8.00
2018-04-12T02:52:30.352Z,8.00
2018-04-12T02:53:30.187Z,8.00
2018-04-12T02:54:30.853Z,8.00
2018-04-12T02:55:30.595Z,8.00
2018-04-12T02:56:30.008Z,8.00
2018-04-12T02:57:30.005Z,8.00
2018-04-12T02:58:29.985Z,8.00
2018-04-12T02:59:30.069Z,8.00
2018-04-12T03:00:30.492Z,8.00
2018-04-12T03:01:29.927Z,8.00
2018-04-12T03:02:30.472Z,8.00
2018-04-12T03:03:29.827Z,8.00
2018-04-12T03:05:29.887Z,0.00
2018-04-12T03:06:29.777Z,0.00
2018-04-12T03:07:30.366Z,0.00
2018-04-12T03:08:30.197Z,0.00
2018-04-12T03:09:30.008Z,0.00
2018-04-12T03:10:30.288Z,0.00
2018-04-12T03:11:29.679Z,0.00
2018-04-12T03:12:29.618Z,0.00
2018-04-12T03:13:29.818Z,0.00
2018-04-12T03:14:29.560Z,0.00
2018-04-12T03:15:30.006Z,0.00
2018-04-12T03:16:29.620Z,0.00
2018-04-12T03:17:30.005Z,0.00
2018-04-12T03:18:29.498Z,0.00
2018-04-12T03:19:29.947Z,0.00
2018-04-12T03:20:29.395Z,0.00
2018-04-12T03:21:29.361Z,0.00
2018-04-12T03:22:29.372Z,0.00
2018-04-12T03:23:29.479Z,0.00
2018-04-12T03:24:29.898Z,0.00
2018-04-12T03:25:29.839Z,0.00
2018-04-12T03:26:29.380Z,0.00
2018-04-12T03:27:29.349Z,0.00
2018-04-12T03:28:29.213Z,0.00
2018-04-12T03:29:29.297Z,0.00
2018-04-12T03:30:29.150Z,0.00
2018-04-12T03:31:29.175Z,0.00
2018-04-12T03:32:29.262Z,0.00
2018-04-12T03:33:29.081Z,0.00
2018-04-12T03:34:29.063Z,0.00
2018-04-12T03:35:29.004Z,0.00
2018-04-12T03:36:28.997Z,0.00
2018-04-12T03:37:29.663Z,0.00
2018-04-12T03:38:28.927Z,0.00
2018-04-12T03:39:28.924Z,0.00
2018-04-12T03:40:28.884Z,0.00
2018-04-12T03:41:29.021Z,0.00
2018-04-12T03:42:28.885Z,0.00
2018-04-12T03:43:29.280Z,0.00
2018-04-12T03:44:28.738Z,0.00
2018-04-12T03:45:29.221Z,0.00
2018-04-12T03:46:28.741Z,0.00
2018-04-12T03:47:28.680Z,0.00
2018-04-12T03:48:29.300Z,0.00
2018-04-12T03:49:28.749Z,0.00
2018-04-12T03:50:29.154Z,0.00
2018-04-12T03:51:29.186Z,0.00
2018-04-12T03:52:28.582Z,0.00
2018-04-12T03:53:28.520Z,0.00
2018-04-12T03:54:29.064Z,0.00
2018-04-12T03:55:28.469Z,0.00
2018-04-12T03:56:28.445Z,0.00
2018-04-12T03:57:29.004Z,0.00
2018-04-12T03:58:28.391Z,0.00
2018-04-12T03:59:28.412Z,0.00
2018-04-12T04:00:28.352Z,0.00
2018-04-12T04:01:28.313Z,0.00
2018-04-12T04:02:28.286Z,0.00
2018-04-12T04:03:28.569Z,0.00
2018-04-12T04:04:28.337Z,0.00
2018-04-12T04:05:28.177Z,0.00
2018-04-12T04:06:28.209Z,0.00
2018-04-12T04:07:28.166Z,0.00
2018-04-12T04:08:28.241Z,0.00
2018-04-12T04:09:28.221Z,0.00
2018-04-12T04:10:28.146Z,0.00
2018-04-12T04:11:28.188Z,0.00
2018-04-12T04:12:28.204Z,0.00
2018-04-12T04:13:27.997Z,0.00
2018-04-12T04:14:28.093Z,0.00
2018-04-12T04:15:28.009Z,0.00
2018-04-12T04:16:28.706Z,0.00
2018-04-12T04:17:27.906Z,0.00
2018-04-12T04:18:28.285Z,0.00
2018-04-12T04:19:28.081Z,0.00
2018-04-12T04:20:29.114Z,0.00
2018-04-12T04:21:27.901Z,0.00
2018-04-12T04:22:28.061Z,0.00
2018-04-12T04:23:27.855Z,0.00
2018-04-12T04:24:28.062Z,0.00
2018-04-12T04:25:27.792Z,0.00
2018-04-12T04:26:27.657Z,0.00
2018-04-12T04:27:27.659Z,0.00
2018-04-12T04:28:27.602Z,0.00
2018-04-12T04:29:27.571Z,0.00
2018-04-12T04:30:27.957Z,0.00
2018-04-12T04:31:27.493Z,0.00
2018-04-12T04:32:27.485Z,0.00
2018-04-12T04:33:27.450Z,0.00
2018-04-12T04:34:27.420Z,0.00
2018-04-12T04:35:27.404Z,0.00
2018-04-12T04:36:27.486Z,0.00
2018-04-12T04:37:27.344Z,0.00
2018-04-12T04:38:27.971Z,0.00
2018-04-12T04:39:27.290Z,0.00
2018-04-12T04:40:27.256Z,0.00
2018-04-12T04:41:27.361Z,0.00
2018-04-12T04:42:27.211Z,0.00
2018-04-12T04:43:27.172Z,0.00
2018-04-12T04:44:27.208Z,0.00
2018-04-12T04:45:27.138Z,0.00
2018-04-12T04:46:27.235Z,0.00
2018-04-12T04:47:27.131Z,0.00
2018-04-12T04:48:27.080Z,0.00
2018-04-12T04:49:27.055Z,0.00
2018-04-12T04:50:27.056Z,0.00
2018-04-12T04:51:26.979Z,0.00
2018-04-12T04:52:27.042Z,0.00
2018-04-12T04:53:26.901Z,0.00
2018-04-12T04:54:27.098Z,0.00
2018-04-12T04:55:26.860Z,0.00
2018-04-12T04:56:26.926Z,0.00
2018-04-12T04:57:26.941Z,0.00
2018-04-12T04:58:26.807Z,0.00
2018-04-12T04:59:26.957Z,0.00
2018-04-12T05:00:26.734Z,0.00
2018-04-12T05:01:26.746Z,0.00
2018-04-12T05:02:26.756Z,0.00
2018-04-12T05:03:26.656Z,0.00
2018-04-12T05:04:26.676Z,0.00
2018-04-12T05:05:26.613Z,0.00
2018-04-12T05:06:26.611Z,0.00
2018-04-12T05:07:26.669Z,0.00
2018-04-12T05:08:26.536Z,0.00
2018-04-12T05:09:26.489Z,0.00
2018-04-12T05:10:26.484Z,0.00
2018-04-12T05:11:26.453Z,0.00
2018-04-12T05:12:26.430Z,0.00
2018-04-12T05:13:26.525Z,0.00
2018-04-12T05:14:26.357Z,0.00
2018-04-12T05:15:26.397Z,0.00
2018-04-12T05:16:26.288Z,0.00
2018-04-12T05:17:26.333Z,0.00
2018-04-12T05:18:26.392Z,0.00
2018-04-12T05:19:26.278Z,0.00
2018-04-12T05:20:26.199Z,0.00
2018-04-12T05:21:26.154Z,0.00
2018-04-12T05:22:26.158Z,0.00
2018-04-12T05:23:26.204Z,0.00
2018-04-12T05:24:26.139Z,0.00
2018-04-12T05:25:26.085Z,0.00
2018-04-12T05:26:26.027Z,0.00
2018-04-12T05:27:26.035Z,0.00
2018-04-12T05:28:25.997Z,0.00
2018-04-12T05:29:26.066Z,0.00
2018-04-12T05:30:26.028Z,0.00
2018-04-12T05:31:25.917Z,0.00
2018-04-12T05:32:25.898Z,0.00
2018-04-12T05:33:25.857Z,0.00
2018-04-12T05:34:25.988Z,0.00
2018-04-12T05:35:25.840Z,0.00
2018-04-12T05:36:25.811Z,0.00
2018-04-12T05:37:25.749Z,0.00
2018-04-12T05:38:25.739Z,0.00
2018-04-12T05:39:25.827Z,0.00
2018-04-12T05:40:25.698Z,0.00
2018-04-12T05:41:25.650Z,0.00
2018-04-12T05:42:25.630Z,0.00
2018-04-12T05:43:25.626Z,0.00
2018-04-12T05:44:25.702Z,0.00
2018-04-12T05:45:25.532Z,0.00
2018-04-12T05:46:25.510Z,0.00
2018-04-12T05:47:25.510Z,0.00
2018-04-12T05:48:25.474Z,0.00
2018-04-12T05:49:25.457Z,0.00
2018-04-12T05:50:25.485Z,0.00
2018-04-12T05:51:25.364Z,0.00
2018-04-12T05:52:25.352Z,0.00
2018-04-12T05:53:25.348Z,0.00
2018-04-12T05:54:25.297Z,0.00
2018-04-12T05:55:25.289Z,0.00
2018-04-12T05:56:25.300Z,0.00
2018-04-12T05:57:25.228Z,0.00
2018-04-12T05:58:25.342Z,0.00
2018-04-12T05:59:25.230Z,0.00
2018-04-12T06:00:25.185Z,0.00
2018-04-12T06:01:25.200Z,0.00
2018-04-12T06:02:25.114Z,0.00
2018-04-12T06:03:25.055Z,0.00
2018-04-12T06:04:25.027Z,0.00
2018-04-12T06:05:25.015Z,0.00
2018-04-12T06:06:25.037Z,0.00
2018-04-12T06:07:24.974Z,0.00
2018-04-12T06:08:24.949Z,0.00
2018-04-12T06:09:24.899Z,0.00
2018-04-12T06:10:24.880Z,0.00
2018-04-12T06:11:24.955Z,0.00
2018-04-12T06:12:24.811Z,0.00
2018-04-12T06:13:24.800Z,0.00
2018-04-12T06:14:24.817Z,0.00
2018-04-12T06:15:24.731Z,0.00
2018-04-12T06:16:24.842Z,0.00
2018-04-12T06:17:24.725Z,0.00
2018-04-12T06:18:24.652Z,0.00
2018-04-12T06:19:24.649Z,0.00
2018-04-12T06:20:24.647Z,0.00
2018-04-12T06:21:24.712Z,0.00
2018-04-12T06:22:24.553Z,0.00
2018-04-12T06:23:24.519Z,0.00
2018-04-12T06:24:24.520Z,0.00
2018-04-12T06:25:24.474Z,0.00
2018-04-12T06:26:24.464Z,0.00
2018-04-12T06:27:24.511Z,0.00
2018-04-12T06:28:24.437Z,0.00
2018-04-12T06:29:24.371Z,0.00
2018-04-12T06:30:24.333Z,0.00
2018-04-12T06:31:24.357Z,0.00
2018-04-12T06:32:24.301Z,0.00
2018-04-12T06:33:24.276Z,0.00
2018-04-12T06:34:24.251Z,0.00
2018-04-12T06:35:24.230Z,0.00
2018-04-12T06:36:24.250Z,0.00
2018-04-12T06:37:24.177Z,0.00
2018-04-12T06:38:24.187Z,0.00
2018-04-12T06:39:24.106Z,0.00
2018-04-12T06:40:24.067Z,0.00
2018-04-12T06:41:24.026Z,0.00
2018-04-12T06:42:24.026Z,0.00
2018-04-12T06:43:24.095Z,0.00
2018-04-12T06:44:23.963Z,0.00
2018-04-12T06:45:23.969Z,0.00
2018-04-12T06:46:23.907Z,0.00
2018-04-12T06:47:23.940Z,0.00
2018-04-12T06:48:24.000Z,0.00
2018-04-12T06:49:23.833Z,0.00
2018-04-12T06:50:23.924Z,0.00
2018-04-12T06:51:23.868Z,0.00
2018-04-12T06:52:23.853Z,0.00
2018-04-12T06:53:24.039Z,0.00
2018-04-12T06:54:23.826Z,0.00
2018-04-12T06:55:23.706Z,0.00
2018-04-12T06:56:23.843Z,0.00
2018-04-12T06:57:23.786Z,0.00
2018-04-12T06:58:23.993Z,0.00
2018-04-12T06:59:23.736Z,0.00
2018-04-12T07:00:23.679Z,0.00
2018-04-12T07:01:23.668Z,0.00
2018-04-12T07:02:23.656Z,0.00
2018-04-12T07:03:23.592Z,0.00
2018-04-12T07:04:23.780Z,0.00
2018-04-12T07:05:23.443Z,0.00
2018-04-12T07:06:23.436Z,0.00
2018-04-12T07:07:23.389Z,0.00
2018-04-12T07:08:23.441Z,0.00
2018-04-12T07:09:23.470Z,0.00
2018-04-12T07:10:23.668Z,0.00
2018-04-12T07:11:23.352Z,0.00
2018-04-12T07:12:23.228Z,0.00
2018-04-12T07:13:23.314Z,0.00
2018-04-12T07:14:23.354Z,0.00
2018-04-12T07:15:23.422Z,0.00
2018-04-12T07:16:23.115Z,0.00
2018-04-12T07:17:23.143Z,0.00
2018-04-12T07:18:23.147Z,0.00
2018-04-12T07:19:23.250Z,0.00
2018-04-12T07:20:23.029Z,0.00
2018-04-12T07:21:23.085Z,0.00
2018-04-12T07:22:23.043Z,0.00
2018-04-12T07:23:23.047Z,0.00
2018-04-12T07:24:22.984Z,0.00
2018-04-12T07:25:23.112Z,0.00
2018-04-12T07:26:23.025Z,0.00
2018-04-12T07:27:22.824Z,0.00
2018-04-12T07:28:22.811Z,0.00
2018-04-12T07:29:22.808Z,0.00
2018-04-12T07:30:22.856Z,0.00
2018-04-12T07:31:22.724Z,0.00
2018-04-12T07:32:22.693Z,0.00
2018-04-12T07:33:22.659Z,0.00
2018-04-12T07:34:22.675Z,0.00
2018-04-12T07:35:22.704Z,0.00
2018-04-12T07:36:22.566Z,0.00
2018-04-12T07:37:22.654Z,0.00
2018-04-12T07:38:22.518Z,0.00
2018-04-12T07:39:22.535Z,0.00
2018-04-12T07:40:22.503Z,0.00
2018-04-12T07:41:22.573Z,0.00
2018-04-12T07:42:22.431Z,0.00
2018-04-12T07:43:22.404Z,0.00
2018-04-12T07:44:22.400Z,0.00
2018-04-12T07:45:22.383Z,0.00
2018-04-12T07:46:22.319Z,0.00
2018-04-12T07:47:22.398Z,0.00
2018-04-12T07:48:22.275Z,0.00
2018-04-12T07:49:22.262Z,0.00
2018-04-12T07:50:22.233Z,0.00
2018-04-12T07:51:22.234Z,0.00
2018-04-12T07:52:22.237Z,0.00
2018-04-12T07:53:22.142Z,0.00
2018-04-12T07:54:22.108Z,0.00
2018-04-12T07:55:22.071Z,0.00
2018-04-12T07:56:22.069Z,0.00
2018-04-12T07:57:22.064Z,0.00
2018-04-12T07:58:22.001Z,0.00
2018-04-12T07:59:21.985Z,0.00
2018-04-12T08:00:21.970Z,0.00
2018-04-12T08:01:21.948Z,0.00
2018-04-12T08:02:22.008Z,0.00
2018-04-12T08:03:21.853Z,0.00
2018-04-12T08:04:21.869Z,0.00
2018-04-12T08:05:21.820Z,0.00
2018-04-12T08:06:21.775Z,0.00
2018-04-12T08:07:21.853Z,0.00
2018-04-12T08:08:21.745Z,0.00
2018-04-12T08:09:21.724Z,0.00
2018-04-12T08:10:21.679Z,0.00
2018-04-12T08:11:21.658Z,0.00
2018-04-12T08:12:21.745Z,0.00
2018-04-12T08:13:21.612Z,0.00
2018-04-12T08:14:21.839Z,0.00
2018-04-12T08:15:22.336Z,0.00
2018-04-12T08:16:22.136Z,0.00
2018-04-12T08:17:21.533Z,0.00
2018-04-12T08:18:21.564Z,0.00
2018-04-12T08:19:21.462Z,0.00
2018-04-12T08:20:21.432Z,0.00
2018-04-12T08:21:21.379Z,0.00
2018-04-12T08:22:21.383Z,0.00
2018-04-12T08:23:21.324Z,0.00
2018-04-12T08:24:21.315Z,0.00
2018-04-12T08:25:21.294Z,0.00
2018-04-12T08:26:21.246Z,0.00
2018-04-12T08:27:21.235Z,0.00
2018-04-12T08:28:21.215Z,0.00
2018-04-12T08:29:21.243Z,0.00
2018-04-12T08:30:21.146Z,0.00
2018-04-12T08:31:21.117Z,0.00
2018-04-12T08:32:21.107Z,0.00
2018-04-12T08:33:21.067Z,0.00
2018-04-12T08:34:21.088Z,0.00
2018-04-12T08:35:21.037Z,0.00
2018-04-12T08:36:20.982Z,0.00
2018-04-12T08:37:20.969Z,0.00
2018-04-12T08:38:20.942Z,0.00
2018-04-12T08:39:21.009Z,0.00
2018-04-12T08:40:20.904Z,0.00
2018-04-12T08:41:20.855Z,0.00
2018-04-12T08:42:20.867Z,0.00
2018-04-12T08:43:20.825Z,0.00
2018-04-12T08:44:20.891Z,0.00
2018-04-12T08:45:20.750Z,0.00
2018-04-12T08:46:20.714Z,0.00
2018-04-12T08:47:20.681Z,0.00
2018-04-12T08:48:20.672Z,0.00
2018-04-12T08:49:20.652Z,0.00
2018-04-12T08:50:20.699Z,0.00
2018-04-12T08:51:20.588Z,0.00
2018-04-12T08:52:20.564Z,0.00
2018-04-12T08:53:20.534Z,0.00
2018-04-12T08:54:20.505Z,0.00
2018-04-12T08:55:20.587Z,0.00
2018-04-12T08:56:20.443Z,0.00
2018-04-12T08:57:20.460Z,0.00
2018-04-12T08:58:20.388Z,0.00
2018-04-12T08:59:20.385Z,0.00
2018-04-12T09:00:20.363Z,0.00
2018-04-12T09:01:20.391Z,0.00
2018-04-12T09:02:20.302Z,0.00
2018-04-12T09:03:20.270Z,0.00
2018-04-12T09:04:20.235Z,0.00
2018-04-12T09:05:20.234Z,0.00
2018-04-12T09:06:20.283Z,0.00
2018-04-12T09:07:20.176Z,0.00
2018-04-12T09:08:20.144Z,0.00
2018-04-12T09:09:20.144Z,0.00
2018-04-12T09:10:20.124Z,0.00
2018-04-12T09:11:20.042Z,0.00
2018-04-12T09:12:20.043Z,0.00
2018-04-12T09:13:19.999Z,0.00
2018-04-12T09:14:19.961Z,0.00
2018-04-12T09:15:19.933Z,0.00
2018-04-12T09:16:20.013Z,0.00
2018-04-12T09:17:19.883Z,0.00
2018-04-12T09:18:19.862Z,0.00
2018-04-12T09:19:19.856Z,0.00
2018-04-12T09:20:19.823Z,0.00
2018-04-12T09:21:19.889Z,0.00
2018-04-12T09:22:19.743Z,0.00
2018-04-12T09:23:19.739Z,0.00
2018-04-12T09:24:19.699Z,0.00
2018-04-12T09:25:19.708Z,0.00
2018-04-12T09:26:19.709Z,0.00
2018-04-12T09:27:19.624Z,0.00
2018-04-12T09:28:19.610Z,0.00
2018-04-12T09:29:19.555Z,0.00
2018-04-12T09:30:19.527Z,0.00
2018-04-12T09:31:19.496Z,0.00
2018-04-12T09:32:19.576Z,0.00
2018-04-12T09:33:19.511Z,0.00
2018-04-12T09:34:19.434Z,0.00
2018-04-12T09:35:19.425Z,0.00
2018-04-12T09:36:19.369Z,0.00
2018-04-12T09:37:19.356Z,0.00
2018-04-12T09:38:19.385Z,0.00
2018-04-12T09:39:19.332Z,0.00
2018-04-12T09:40:19.258Z,0.00
2018-04-12T09:41:19.291Z,0.00
2018-04-12T09:42:19.214Z,0.00
2018-04-12T09:43:19.229Z,0.00
2018-04-12T09:44:19.166Z,0.00
2018-04-12T09:45:19.130Z,0.00
2018-04-12T09:46:19.179Z,0.00
2018-04-12T09:47:19.090Z,0.00
2018-04-12T09:48:19.105Z,0.00
2018-04-12T09:49:19.114Z,0.00
2018-04-12T09:50:19.001Z,0.00
2018-04-12T09:51:18.960Z,0.00
2018-04-12T09:52:18.940Z,0.00
2018-04-12T09:53:19.026Z,0.00
2018-04-12T09:54:18.897Z,0.00
2018-04-12T09:55:18.876Z,0.00
2018-04-12T09:56:18.849Z,0.00
2018-04-12T09:57:18.795Z,0.00
2018-04-12T09:58:18.872Z,0.00
2018-04-12T09:59:18.839Z,0.00
2018-04-12T10:00:18.729Z,0.00
2018-04-12T10:01:18.694Z,0.00
2018-04-12T10:02:18.683Z,0.00
2018-04-12T10:03:18.687Z,0.00
2018-04-12T10:04:18.662Z,0.00
2018-04-12T10:05:18.600Z,0.00
2018-04-12T10:06:18.579Z,0.00
2018-04-12T10:07:18.566Z,0.00
2018-04-12T10:08:18.526Z,0.00
2018-04-12T10:09:18.628Z,0.00
2018-04-12T10:10:18.547Z,0.00
2018-04-12T10:11:18.426Z,0.00
2018-04-12T10:12:18.411Z,0.00
2018-04-12T10:13:18.365Z,0.00
2018-04-12T10:14:18.342Z,0.00
2018-04-12T10:15:18.366Z,0.00
2018-04-12T10:16:18.293Z,0.00
2018-04-12T10:17:18.282Z,0.00
2018-04-12T10:18:18.253Z,0.00
2018-04-12T10:19:18.224Z,0.00
2018-04-12T10:20:18.254Z,0.00
2018-04-12T10:21:18.153Z,0.00
2018-04-12T10:22:18.144Z,0.00
2018-04-12T10:23:18.118Z,0.00
2018-04-12T10:24:18.099Z,0.00
2018-04-12T10:25:18.139Z,0.00
2018-04-12T10:26:18.034Z,0.00
2018-04-12T10:27:17.999Z,0.00
2018-04-12T10:28:17.978Z,0.00
2018-04-12T10:29:17.955Z,0.00
2018-04-12T10:30:18.035Z,0.00
2018-04-12T10:31:17.878Z,0.00
2018-04-12T10:32:17.858Z,0.00
2018-04-12T10:33:17.837Z,0.00
2018-04-12T10:34:17.807Z,0.00
2018-04-12T10:35:17.829Z,0.00
2018-04-12T10:36:17.791Z,0.00
2018-04-12T10:37:17.739Z,0.00
2018-04-12T10:38:17.698Z,0.00
2018-04-12T10:39:17.691Z,0.00
2018-04-12T10:40:17.649Z,0.00
2018-04-12T10:41:17.659Z,0.00
2018-04-12T10:42:17.572Z,0.00
2018-04-12T10:43:17.580Z,0.00
2018-04-12T10:44:17.589Z,0.00
2018-04-12T10:45:17.535Z,0.00
2018-04-12T10:46:17.618Z,0.00
2018-04-12T10:47:17.496Z,0.00
2018-04-12T10:48:17.419Z,0.00
2018-04-12T10:49:17.408Z,0.00
2018-04-12T10:50:17.355Z,0.00
2018-04-12T10:51:17.354Z,0.00
2018-04-12T10:52:17.365Z,0.00
2018-04-12T10:53:17.292Z,0.00
2018-04-12T10:54:17.262Z,0.00
2018-04-12T10:55:17.246Z,0.00
2018-04-12T10:56:17.228Z,0.00
2018-04-12T10:57:17.247Z,0.00
2018-04-12T10:58:17.145Z,0.00
2018-04-12T10:59:17.146Z,0.00
2018-04-12T11:00:17.095Z,0.00
2018-04-12T11:01:17.082Z,0.00
2018-04-12T11:02:17.126Z,0.00
2018-04-12T11:03:17.023Z,0.00
2018-04-12T11:04:17.001Z,0.00
2018-04-12T11:05:16.959Z,0.00
2018-04-12T11:06:16.938Z,0.00
2018-04-12T11:07:16.947Z,0.00
2018-04-12T11:08:16.927Z,0.00
2018-04-12T11:09:16.889Z,0.00
2018-04-12T11:10:16.873Z,0.00
2018-04-12T11:11:16.824Z,0.00
2018-04-12T11:12:16.825Z,0.00
2018-04-12T11:13:16.779Z,0.00
2018-04-12T11:14:16.721Z,0.00
2018-04-12T11:15:16.712Z,0.00
2018-04-12T11:16:16.663Z,0.00
2018-04-12T11:17:16.678Z,0.00
2018-04-12T11:18:17.274Z,0.00
2018-04-12T11:19:16.587Z,4.00
2018-04-12T11:20:16.719Z,0.00
2018-04-12T11:21:16.688Z,4.00
2018-04-12T11:22:16.536Z,4.00
2018-04-12T11:23:16.605Z,4.00
2018-04-12T11:24:16.512Z,4.00
2018-04-12T11:25:16.452Z,8.00
2018-04-12T11:26:16.397Z,12.00
2018-04-12T11:27:16.538Z,12.00
2018-04-12T11:28:16.360Z,16.00
2018-04-12T11:29:16.412Z,20.00
2018-04-12T11:30:16.300Z,24.00
2018-04-12T11:31:16.276Z,28.00
2018-04-12T11:32:16.228Z,36.00
2018-04-12T11:33:16.182Z,40.00
2018-04-12T11:34:16.199Z,44.00
2018-04-12T11:35:16.201Z,48.00
2018-04-12T11:36:16.112Z,56.00
2018-04-12T11:37:16.129Z,64.00
2018-04-12T11:38:16.079Z,72.00
2018-04-12T11:39:16.142Z,76.00
2018-04-12T11:40:16.029Z,88.00
2018-04-12T11:41:15.980Z,92.00
2018-04-12T11:42:15.949Z,96.00
2018-04-12T11:43:15.934Z,104.00
2018-04-12T11:44:16.184Z,112.00
2018-04-12T11:45:17.131Z,124.00
2018-04-12T11:46:15.940Z,132.00
2018-04-12T11:47:16.247Z,140.00
2018-04-12T11:48:16.046Z,152.00
2018-04-12T11:49:15.801Z,160.00
2018-04-12T11:50:15.786Z,172.00
2018-04-12T11:51:15.710Z,180.00
2018-04-12T11:52:15.700Z,188.00
2018-04-12T11:53:15.678Z,188.00
2018-04-12T11:54:15.625Z,196.00
2018-04-12T11:55:15.646Z,204.00
2018-04-12T11:56:16.348Z,216.00
2018-04-12T11:57:15.571Z,224.00
2018-04-12T11:58:15.564Z,228.00
2018-04-12T11:59:17.168Z,240.00
2018-04-12T12:00:17.705Z,244.00
2018-04-12T12:01:16.731Z,256.00
2018-04-12T12:02:17.055Z,264.00
2018-04-12T12:03:17.095Z,276.00
2018-04-12T12:04:17.068Z,288.00
2018-04-12T12:05:16.115Z,292.00
2018-04-12T12:06:15.300Z,292.00
2018-04-12T12:07:16.764Z,300.00
2018-04-12T12:08:15.266Z,308.00
2018-04-12T12:09:15.205Z,316.00
2018-04-12T12:10:15.209Z,336.00
2018-04-12T12:11:15.293Z,360.00
2018-04-12T12:12:15.142Z,376.00
2018-04-12T12:13:15.128Z,380.00
2018-04-12T12:14:15.111Z,388.00
2018-04-12T12:15:15.070Z,392.00
2018-04-12T12:16:15.159Z,400.00
2018-04-12T12:17:15.019Z,412.00
2018-04-12T12:18:14.956Z,420.00
2018-04-12T12:19:15.204Z,428.00
2018-04-12T12:20:14.904Z,436.00
2018-04-12T12:21:14.905Z,448.00
2018-04-12T12:22:14.922Z,464.00
2018-04-12T12:23:14.848Z,532.00
2018-04-12T12:24:14.836Z,688.00
2018-04-12T12:25:14.838Z,556.00
2018-04-12T12:26:14.890Z,564.00
2018-04-12T12:27:14.824Z,588.00
2018-04-12T12:28:14.735Z,616.00
2018-04-12T12:29:14.693Z,688.00
2018-04-12T12:30:14.639Z,744.00
2018-04-12T12:31:14.772Z,908.00
2018-04-12T12:32:14.645Z,1084.00
2018-04-12T12:33:14.757Z,1700.00
2018-04-12T12:34:14.565Z,2416.00
2018-04-12T12:35:14.547Z,1184.00
2018-04-12T12:36:14.469Z,1152.00
2018-04-12T12:37:14.571Z,1220.00
2018-04-12T12:38:14.476Z,2280.00
2018-04-12T12:39:14.428Z,1588.00
2018-04-12T12:40:14.406Z,3372.00
2018-04-12T12:41:15.042Z,3456.00
2018-04-12T12:42:14.431Z,3668.00
2018-04-12T12:43:14.301Z,3152.00
2018-04-12T12:44:14.287Z,3164.00
2018-04-12T12:45:14.428Z,4300.00
2018-04-12T12:46:14.241Z,5012.00
2018-04-12T12:47:14.258Z,5180.00
2018-04-12T12:48:15.442Z,5040.00
2018-04-12T12:49:14.172Z,5108.00
2018-04-12T12:50:14.138Z,5360.00
2018-04-12T12:51:14.143Z,3324.00
2018-04-12T12:52:14.232Z,1056.00
2018-04-12T12:53:14.149Z,1100.00
2018-04-12T12:54:14.035Z,1128.00
2018-04-12T12:55:13.993Z,2304.00
2018-04-12T12:56:14.143Z,1880.00
2018-04-12T12:57:16.004Z,980.00
2018-04-12T12:58:16.831Z,840.00
2018-04-12T12:59:14.215Z,804.00
2018-04-12T13:00:13.857Z,808.00
2018-04-12T13:01:14.830Z,816.00
2018-04-12T13:02:14.917Z,832.00
2018-04-12T13:03:15.469Z,832.00
2018-04-12T13:04:15.851Z,852.00
2018-04-12T13:05:15.172Z,868.00
2018-04-12T13:06:13.873Z,888.00
2018-04-12T13:07:13.687Z,924.00
2018-04-12T13:08:13.661Z,972.00
2018-04-12T13:09:14.998Z,1028.00
2018-04-12T13:10:13.626Z,1084.00
2018-04-12T13:11:13.589Z,1132.00